Time;durP1;ratioP1;P1;durP2;ratioP2;P2;SDS_P1;SDS_P2;PMS_P1;PMS_P2;Temp;Humidity;BMP_temperature;BMP_pressure;BME280_temperature;BME280_humidity;BME280_pressure;Samples;Min_cycle;Max_cycle;Signal;HPM_P1;HPM_P2
2022/01/26 00:00:56;;;;;;;29.47;18.33;;;;;;;;;;5055968;28;20431;-67
2022/01/26 00:06:14;;;;;;;30.90;18.10;;;;;;;;;;5055604;28;20937;-66
2022/01/26 00:08:40;;;;;;;34.47;18.77;;;;;;;;;;5055435;28;20931;-64
2022/01/26 00:11:06;;;;;;;30.10;17.80;;;;;;;;;;5055126;28;20427;-66
2022/01/26 00:13:32;;;;;;;31.00;18.37;;;;;;;;;;5055306;28;20470;-67
2022/01/26 00:16:02;;;;;;;28.73;16.97;;;;;;;;;;5055445;28;20437;-67
2022/01/26 00:18:31;;;;;;;28.00;17.13;;;;;;;;;;5055215;28;20915;-66
2022/01/26 00:21:05;;;;;;;28.83;18.53;;;;;;;;;;5055321;28;20441;-66
2022/01/26 00:23:51;;;;;;;32.73;17.47;;;;;;;;;;5055230;28;20934;-67
2022/01/26 00:26:28;;;;;;;28.97;16.77;;;;;;;;;;5054891;28;20443;-67
2022/01/26 00:39:35;;;;;;;27.93;17.10;;;;;;;;;;5054862;28;20422;-73
2022/01/26 00:42:01;;;;;;;29.60;15.83;;;;;;;;;;5054886;28;20481;-73
2022/01/26 00:44:35;;;;;;;29.97;16.73;;;;;;;;;;5054696;28;20447;-74
2022/01/26 00:47:01;;;;;;;26.40;15.67;;;;;;;;;;5054289;28;20568;-74
2022/01/26 00:49:28;;;;;;;29.03;17.20;;;;;;;;;;5054556;28;20790;-70
2022/01/26 00:51:54;;;;;;;29.20;19.92;;;;;;;;;;5053480;28;20470;-74
2022/01/26 00:54:20;;;;;;;24.83;17.17;;;;;;;;;;5054269;28;20270;-66
2022/01/26 00:56:48;;;;;;;23.37;15.33;;;;;;;;;;5054579;28;20792;-66
2022/01/26 00:59:14;;;;;;;26.37;15.43;;;;;;;;;;5054482;28;20232;-66
2022/01/26 01:01:40;;;;;;;28.10;16.93;;;;;;;;;;5054598;28;20465;-66
2022/01/26 01:04:06;;;;;;;25.37;15.60;;;;;;;;;;5054190;28;20797;-66
2022/01/26 01:06:42;;;;;;;28.40;16.27;;;;;;;;;;5054172;28;20471;-68
2022/01/26 01:09:08;;;;;;;25.07;15.60;;;;;;;;;;5054067;28;20978;-66
2022/01/26 01:11:34;;;;;;;23.43;14.93;;;;;;;;;;5053889;28;20470;-67
2022/01/26 01:14:01;;;;;;;28.13;16.37;;;;;;;;;;5054197;28;20315;-67
2022/01/26 01:16:28;;;;;;;22.83;14.57;;;;;;;;;;5053957;28;20547;-67
2022/01/26 01:19:05;;;;;;;24.20;14.97;;;;;;;;;;5053939;28;20441;-66
2022/01/26 01:22:03;;;;;;;25.13;15.33;;;;;;;;;;5053957;28;20442;-67
2022/01/26 01:30:21;;;;;;;22.00;14.73;;;;;;;;;;5053933;28;20473;-67
2022/01/26 01:33:04;;;;;;;24.20;14.07;;;;;;;;;;5053688;28;20455;-66
2022/01/26 01:35:32;;;;;;;20.73;13.87;;;;;;;;;;5053667;28;21027;-66
2022/01/26 01:38:07;;;;;;;26.93;15.80;;;;;;;;;;5053773;28;20496;-66
2022/01/26 01:40:33;;;;;;;24.23;14.70;;;;;;;;;;5053504;28;20782;-66
2022/01/26 01:42:59;;;;;;;22.53;15.23;;;;;;;;;;5053625;28;20965;-66
2022/01/26 01:45:31;;;;;;;23.23;15.57;;;;;;;;;;5053524;28;20481;-66
2022/01/26 01:47:57;;;;;;;23.80;14.80;;;;;;;;;;5053642;28;20204;-66
2022/01/26 01:50:23;;;;;;;21.53;15.17;;;;;;;;;;5053402;28;20865;-66
2022/01/26 01:52:49;;;;;;;24.37;14.30;;;;;;;;;;5053413;28;20204;-66
2022/01/26 01:55:16;;;;;;;24.50;13.90;;;;;;;;;;5053260;28;20232;-66
2022/01/26 01:57:42;;;;;;;22.07;14.00;;;;;;;;;;5052689;28;20212;-67
2022/01/26 02:00:09;;;;;;;24.97;15.27;;;;;;;;;;5053299;28;20462;-66
2022/01/26 02:02:36;;;;;;;28.13;15.07;;;;;;;;;;5053421;28;20597;-67
2022/01/26 02:05:03;;;;;;;21.00;13.80;;;;;;;;;;5053131;28;20443;-67
2022/01/26 02:07:29;;;;;;;20.93;13.27;;;;;;;;;;5053153;28;20434;-66
2022/01/26 02:09:55;;;;;;;26.87;14.20;;;;;;;;;;5053053;28;20438;-66
2022/01/26 02:12:24;;;;;;;24.73;14.80;;;;;;;;;;5052837;28;20709;-67
2022/01/26 02:15:02;;;;;;;23.67;14.13;;;;;;;;;;5052915;28;20254;-67
2022/01/26 02:55:55;;;;;;;22.80;14.20;;;;;;;;;;5052325;28;20474;-66
2022/01/26 03:01:06;;;;;;;18.50;12.00;;;;;;;;;;5052370;28;20462;-66
2022/01/26 03:03:44;;;;;;;21.47;13.10;;;;;;;;;;5052331;28;20458;-66
2022/01/26 03:06:16;;;;;;;21.63;13.90;;;;;;;;;;5052402;28;20435;-66
2022/01/26 03:08:49;;;;;;;22.43;13.40;;;;;;;;;;5054009;28;20969;-66
2022/01/26 03:11:17;;;;;;;20.20;12.97;;;;;;;;;;5058753;28;20531;-66
2022/01/26 03:13:49;;;;;;;21.03;13.00;;;;;;;;;;5059063;28;20485;-66
2022/01/26 03:16:40;;;;;;;25.07;14.20;;;;;;;;;;5058934;28;20430;-66
2022/01/26 03:19:20;;;;;;;22.27;13.57;;;;;;;;;;5058683;28;20542;-66
2022/01/26 03:30:08;;;;;;;19.63;11.97;;;;;;;;;;5059089;28;20521;-67
2022/01/26 03:34:57;;;;;;;20.30;12.73;;;;;;;;;;5058963;28;20486;-66
2022/01/26 03:37:29;;;;;;;19.17;13.17;;;;;;;;;;5058762;28;20518;-66
2022/01/26 03:39:55;;;;;;;22.73;13.47;;;;;;;;;;5058785;28;20517;-66
2022/01/26 03:42:23;;;;;;;21.17;13.73;;;;;;;;;;5058616;28;20422;-66
2022/01/26 03:44:49;;;;;;;22.57;13.73;;;;;;;;;;5058869;28;20473;-67
2022/01/26 03:47:15;;;;;;;21.67;13.10;;;;;;;;;;5058918;28;20459;-67
2022/01/26 03:49:41;;;;;;;23.60;13.70;;;;;;;;;;5058911;28;20866;-66
2022/01/26 03:52:08;;;;;;;28.07;14.00;;;;;;;;;;5058581;28;20438;-67
2022/01/26 03:54:34;;;;;;;21.00;13.27;;;;;;;;;;5058313;28;20554;-66
2022/01/26 03:57:00;;;;;;;22.77;13.20;;;;;;;;;;5058750;28;20496;-66
2022/01/26 03:59:27;;;;;;;20.03;13.37;;;;;;;;;;5058590;28;20434;-65
2022/01/26 04:01:53;;;;;;;21.27;12.70;;;;;;;;;;5058726;28;20204;-66
2022/01/26 04:04:19;;;;;;;23.33;14.70;;;;;;;;;;5058328;28;20485;-64
2022/01/26 04:06:45;;;;;;;25.20;13.80;;;;;;;;;;5058350;28;20216;-65
2022/01/26 04:09:13;;;;;;;22.67;13.17;;;;;;;;;;5058636;28;20439;-65
2022/01/26 04:11:42;;;;;;;22.90;14.07;;;;;;;;;;5058357;28;20500;-65
2022/01/26 04:14:12;;;;;;;26.87;14.87;;;;;;;;;;5058421;28;20485;-65
2022/01/26 04:16:40;;;;;;;24.20;14.40;;;;;;;;;;5058315;28;20442;-65
2022/01/26 04:19:07;;;;;;;23.60;14.00;;;;;;;;;;5058350;28;20528;-65
2022/01/26 04:24:26;;;;;;;25.23;14.87;;;;;;;;;;5055267;28;20460;-65
2022/01/26 04:27:01;;;;;;;27.03;15.80;;;;;;;;;;5055014;28;20433;-65
2022/01/26 04:29:30;;;;;;;28.73;15.40;;;;;;;;;;5055105;28;20433;-65
2022/01/26 04:31:58;;;;;;;28.63;16.30;;;;;;;;;;5055158;28;20442;-65
2022/01/26 04:34:25;;;;;;;27.77;15.43;;;;;;;;;;5054813;28;20466;-65
2022/01/26 04:39:22;;;;;;;23.77;15.93;;;;;;;;;;5054819;28;20435;-65
2022/01/26 04:41:57;;;;;;;25.37;16.20;;;;;;;;;;5054919;28;20449;-65
2022/01/26 04:44:31;;;;;;;26.33;16.30;;;;;;;;;;5054739;28;20478;-65
2022/01/26 04:46:59;;;;;;;30.00;16.97;;;;;;;;;;5055040;28;20808;-65
2022/01/26 04:49:25;;;;;;;26.37;16.07;;;;;;;;;;5054682;28;20454;-65
2022/01/26 04:51:50;;;;;;;30.83;16.53;;;;;;;;;;5054743;28;20443;-64
2022/01/26 04:54:17;;;;;;;28.57;17.63;;;;;;;;;;5054362;28;20528;-64
2022/01/26 04:56:43;;;;;;;27.73;16.43;;;;;;;;;;5054440;28;20196;-64
2022/01/26 04:59:09;;;;;;;30.03;17.17;;;;;;;;;;5054709;28;20443;-66
2022/01/26 05:01:35;;;;;;;27.93;16.90;;;;;;;;;;5054501;28;20581;-64
2022/01/26 05:04:02;;;;;;;23.47;15.90;;;;;;;;;;5054278;28;20978;-65
2022/01/26 05:06:28;;;;;;;27.57;17.13;;;;;;;;;;5054426;28;20438;-65
2022/01/26 05:08:54;;;;;;;32.13;18.57;;;;;;;;;;5054524;28;20996;-67
2022/01/26 05:11:31;;;;;;;29.80;18.60;;;;;;;;;;5054137;28;20298;-65
2022/01/26 05:13:58;;;;;;;28.33;17.23;;;;;;;;;;5054073;28;20926;-65
2022/01/26 05:16:24;;;;;;;32.47;18.77;;;;;;;;;;5054251;28;20462;-64
2022/01/26 05:18:50;;;;;;;33.40;19.80;;;;;;;;;;5054250;28;20453;-65
2022/01/26 05:21:18;;;;;;;33.20;18.90;;;;;;;;;;5054048;28;20470;-64
2022/01/26 05:23:44;;;;;;;33.63;18.50;;;;;;;;;;5054228;28;20446;-65
2022/01/26 05:26:09;;;;;;;31.93;18.17;;;;;;;;;;5054046;28;20822;-65
2022/01/26 05:28:35;;;;;;;35.27;19.83;;;;;;;;;;5053923;28;20196;-64
2022/01/26 05:31:01;;;;;;;34.30;19.70;;;;;;;;;;5054027;28;20230;-64
2022/01/26 05:33:27;;;;;;;35.43;19.80;;;;;;;;;;5052683;28;20200;-63
2022/01/26 05:35:53;;;;;;;35.07;19.43;;;;;;;;;;5053892;28;20230;-64
2022/01/26 05:38:21;;;;;;;37.63;20.27;;;;;;;;;;5053758;28;20204;-64
2022/01/26 05:40:47;;;;;;;36.33;20.30;;;;;;;;;;5053764;28;20200;-64
2022/01/26 05:43:15;;;;;;;33.00;18.73;;;;;;;;;;5053701;28;20435;-65
2022/01/26 05:45:42;;;;;;;34.33;19.00;;;;;;;;;;5053747;28;20436;-65
2022/01/26 05:48:12;;;;;;;33.23;19.50;;;;;;;;;;5053509;28;20446;-65
2022/01/26 05:50:38;;;;;;;33.43;17.70;;;;;;;;;;5053380;28;20488;-65
2022/01/26 05:53:04;;;;;;;32.53;17.20;;;;;;;;;;5053440;28;20492;-64
2022/01/26 05:55:32;;;;;;;38.10;19.70;;;;;;;;;;5053142;28;21005;-64
2022/01/26 05:57:58;;;;;;;33.20;19.33;;;;;;;;;;5053419;28;20207;-64
2022/01/26 06:00:24;;;;;;;35.10;18.83;;;;;;;;;;5053138;28;20808;-64
2022/01/26 06:02:50;;;;;;;33.47;19.33;;;;;;;;;;5053291;28;20277;-65
2022/01/26 06:05:16;;;;;;;36.97;18.80;;;;;;;;;;5053051;28;20530;-64
2022/01/26 06:07:42;;;;;;;37.27;19.27;;;;;;;;;;5053079;28;20222;-65
2022/01/26 06:10:08;;;;;;;36.83;19.40;;;;;;;;;;5053110;28;20680;-65
2022/01/26 06:12:35;;;;;;;39.20;19.90;;;;;;;;;;5052673;28;20999;-65
2022/01/26 06:15:02;;;;;;;36.13;18.97;;;;;;;;;;5052999;28;20485;-64
2022/01/26 06:17:28;;;;;;;36.20;18.73;;;;;;;;;;5052802;28;20809;-66
2022/01/26 06:19:54;;;;;;;34.60;18.47;;;;;;;;;;5052736;28;20788;-65
2022/01/26 06:22:20;;;;;;;35.50;18.97;;;;;;;;;;5052798;28;20427;-65
2022/01/26 06:24:46;;;;;;;33.43;19.53;;;;;;;;;;5052673;28;20488;-65
2022/01/26 06:27:12;;;;;;;35.73;20.37;;;;;;;;;;5053101;28;20461;-64
2022/01/26 06:29:39;;;;;;;33.33;17.87;;;;;;;;;;5052740;28;20474;-65
2022/01/26 06:32:06;;;;;;;31.73;17.67;;;;;;;;;;5052803;28;20196;-64
2022/01/26 06:34:35;;;;;;;34.87;17.97;;;;;;;;;;5052402;28;20478;-64
2022/01/26 06:37:01;;;;;;;37.13;19.60;;;;;;;;;;5052748;28;20427;-65
2022/01/26 06:39:27;;;;;;;33.83;18.33;;;;;;;;;;5052550;28;20458;-62
2022/01/26 06:41:55;;;;;;;36.77;18.90;;;;;;;;;;5052629;28;20196;-63
2022/01/26 06:44:35;;;;;;;33.67;18.87;;;;;;;;;;5052017;28;20427;-64
2022/01/26 06:47:56;;;;;;;36.60;20.03;;;;;;;;;;5052596;28;20430;-65
2022/01/26 06:49:49;;;;;;;33.83;18.27;;;;;;;;;;5038430;28;20447;-64
2022/01/26 06:52:15;;;;;;;36.63;19.87;;;;;;;;;;5052473;28;20438;-64
2022/01/26 06:54:41;;;;;;;34.57;19.33;;;;;;;;;;5052405;28;20487;-64
2022/01/26 06:57:07;;;;;;;40.27;19.27;;;;;;;;;;5052667;28;20788;-64
2022/01/26 06:59:33;;;;;;;30.93;17.73;;;;;;;;;;5052403;28;20188;-64
2022/01/26 07:01:59;;;;;;;33.00;17.90;;;;;;;;;;5052518;28;20577;-64
2022/01/26 07:04:26;;;;;;;33.30;18.10;;;;;;;;;;5050594;28;20455;-64
2022/01/26 07:06:52;;;;;;;33.93;17.17;;;;;;;;;;5052206;28;20931;-64
2022/01/26 07:09:19;;;;;;;32.70;17.40;;;;;;;;;;5052179;28;20450;-65
2022/01/26 07:11:45;;;;;;;33.20;17.50;;;;;;;;;;5052039;28;20235;-65
2022/01/26 07:14:21;;;;;;;32.07;17.23;;;;;;;;;;5052024;28;20442;-65
2022/01/26 07:22:18;;;;;;;29.53;15.47;;;;;;;;;;5051885;28;20485;-65
2022/01/26 07:24:44;;;;;;;32.10;16.87;;;;;;;;;;5052130;28;20447;-65
2022/01/26 07:27:10;;;;;;;32.27;17.53;;;;;;;;;;5052086;28;20203;-65
2022/01/26 07:29:36;;;;;;;36.17;17.33;;;;;;;;;;5052035;28;20216;-65
2022/01/26 07:32:05;;;;;;;35.00;17.17;;;;;;;;;;5051936;28;20477;-65
2022/01/26 07:34:31;;;;;;;32.17;17.90;;;;;;;;;;5051951;28;20487;-65
2022/01/26 07:37:04;;;;;;;34.27;17.93;;;;;;;;;;5052230;28;20806;-65
2022/01/26 07:39:42;;;;;;;35.13;16.27;;;;;;;;;;5051932;28;20439;-65
2022/01/26 07:42:08;;;;;;;34.67;17.10;;;;;;;;;;5052012;28;20438;-65
2022/01/26 07:44:34;;;;;;;35.83;18.00;;;;;;;;;;5051621;28;20822;-65
2022/01/26 07:47:00;;;;;;;34.83;18.17;;;;;;;;;;5051934;28;20442;-66
2022/01/26 07:49:26;;;;;;;34.90;17.40;;;;;;;;;;5051969;28;20810;-65
2022/01/26 07:51:52;;;;;;;33.57;18.27;;;;;;;;;;5051909;28;20224;-64
2022/01/26 07:54:21;;;;;;;37.30;18.50;;;;;;;;;;5051524;28;20522;-64
2022/01/26 07:56:47;;;;;;;34.07;18.00;;;;;;;;;;5054418;28;20224;-65
2022/01/26 07:59:13;;;;;;;38.30;19.20;;;;;;;;;;5055717;28;20822;-65
2022/01/26 08:01:39;;;;;;;38.07;19.13;;;;;;;;;;5055528;28;20438;-64
2022/01/26 08:04:05;;;;;;;37.77;19.57;;;;;;;;;;5055541;28;20462;-65
2022/01/26 08:06:31;;;;;;;38.23;19.40;;;;;;;;;;5055190;28;20451;-66
2022/01/26 08:08:57;;;;;;;40.17;20.90;;;;;;;;;;5055393;28;20227;-64
2022/01/26 08:11:25;;;;;;;46.00;22.07;;;;;;;;;;5054873;28;20236;-63
2022/01/26 08:13:51;;;;;;;45.57;22.47;;;;;;;;;;5055192;28;20442;-65
2022/01/26 08:16:16;;;;;;;51.00;23.30;;;;;;;;;;5055089;28;20478;-64
2022/01/26 08:18:42;;;;;;;53.63;24.80;;;;;;;;;;5054966;28;20457;-64
2022/01/26 08:21:09;;;;;;;51.63;24.23;;;;;;;;;;5054739;28;20200;-65
2022/01/26 08:23:36;;;;;;;50.33;25.17;;;;;;;;;;5054823;28;20200;-65
2022/01/26 08:26:02;;;;;;;52.47;25.30;;;;;;;;;;5054753;28;20947;-65
2022/01/26 08:28:38;;;;;;;53.80;26.87;;;;;;;;;;5054784;28;20503;-65
2022/01/26 08:31:04;;;;;;;59.13;27.53;;;;;;;;;;5054874;28;20439;-65
2022/01/26 08:33:30;;;;;;;57.13;29.00;;;;;;;;;;5054696;28;20477;-66
2022/01/26 08:35:56;;;;;;;56.50;26.40;;;;;;;;;;5054837;28;20544;-65
2022/01/26 08:38:23;;;;;;;57.00;29.07;;;;;;;;;;5054563;28;20438;-65
2022/01/26 08:40:49;;;;;;;58.50;28.13;;;;;;;;;;5054746;28;20211;-65
2022/01/26 08:43:15;;;;;;;53.30;27.37;;;;;;;;;;5054628;28;20764;-65
2022/01/26 08:45:43;;;;;;;59.97;28.37;;;;;;;;;;5054540;28;20948;-67
2022/01/26 08:48:09;;;;;;;51.80;25.33;;;;;;;;;;5054684;28;20465;-65
2022/01/26 08:50:35;;;;;;;55.47;26.50;;;;;;;;;;5054166;28;20484;-65
2022/01/26 08:53:01;;;;;;;54.30;25.97;;;;;;;;;;5054745;28;20430;-65
2022/01/26 08:55:27;;;;;;;52.60;25.37;;;;;;;;;;5054545;28;20246;-65
2022/01/26 08:57:53;;;;;;;58.03;25.83;;;;;;;;;;5054651;28;20438;-66
2022/01/26 09:00:19;;;;;;;50.83;25.23;;;;;;;;;;5054476;28;20852;-66
2022/01/26 09:02:47;;;;;;;59.27;26.13;;;;;;;;;;5054669;28;20212;-66
2022/01/26 09:05:13;;;;;;;52.10;25.73;;;;;;;;;;5054509;28;20607;-66
2022/01/26 09:07:43;;;;;;;53.80;23.80;;;;;;;;;;5053774;28;20526;-66
2022/01/26 09:10:09;;;;;;;55.03;26.70;;;;;;;;;;5053954;28;20796;-65
2022/01/26 09:12:38;;;;;;;48.90;25.57;;;;;;;;;;5054664;28;20564;-65
2022/01/26 09:15:06;;;;;;;50.80;25.53;;;;;;;;;;5054509;28;20512;-64
2022/01/26 09:17:33;;;;;;;52.03;25.03;;;;;;;;;;5054215;28;20478;-64
2022/01/26 09:20:02;;;;;;;54.50;25.73;;;;;;;;;;5054156;28;20539;-65
2022/01/26 09:22:28;;;;;;;49.80;23.97;;;;;;;;;;5054057;28;20450;-69
2022/01/26 09:24:55;;;;;;;50.90;24.80;;;;;;;;;;5054136;28;20470;-68
2022/01/26 09:27:21;;;;;;;48.20;24.13;;;;;;;;;;5053924;28;20927;-65
2022/01/26 09:29:47;;;;;;;52.63;24.00;;;;;;;;;;5053670;28;20925;-62
2022/01/26 09:32:14;;;;;;;46.47;21.97;;;;;;;;;;5054051;28;20434;-64
2022/01/26 09:34:40;;;;;;;44.17;22.33;;;;;;;;;;5053856;28;20481;-60
2022/01/26 09:37:09;;;;;;;42.20;21.30;;;;;;;;;;5053878;28;20434;-67
2022/01/26 09:39:35;;;;;;;46.50;22.30;;;;;;;;;;5053543;28;20454;-66
2022/01/26 09:42:01;;;;;;;41.63;21.33;;;;;;;;;;5053733;28;20518;-69
2022/01/26 09:44:29;;;;;;;39.93;20.80;;;;;;;;;;5053337;28;20216;-69
2022/01/26 09:46:55;;;;;;;39.00;19.83;;;;;;;;;;5053580;28;20443;-67
2022/01/26 09:49:28;;;;;;;40.27;19.70;;;;;;;;;;5053305;28;20439;-67
2022/01/26 09:51:54;;;;;;;42.23;20.07;;;;;;;;;;5053400;28;20481;-69
2022/01/26 09:54:24;;;;;;;38.30;19.13;;;;;;;;;;5053328;28;20435;-72
2022/01/26 09:56:52;;;;;;;44.53;19.90;;;;;;;;;;5053061;28;20431;-74
2022/01/26 09:59:18;;;;;;;36.97;18.80;;;;;;;;;;5053248;28;20441;-73
2022/01/26 10:01:45;;;;;;;36.63;18.80;;;;;;;;;;5053255;28;20497;-73
2022/01/26 10:04:21;;;;;;;39.17;20.27;;;;;;;;;;5053317;28;20458;-74
2022/01/26 10:06:49;;;;;;;39.53;20.17;;;;;;;;;;5051247;28;20435;-73
2022/01/26 10:09:39;;;;;;;38.90;19.53;;;;;;;;;;5053110;28;20521;-74
2022/01/26 10:17:38;;;;;;;51.97;22.33;;;;;;;;;;5051257;28;20422;-75
2022/01/26 10:20:05;;;;;;;46.00;22.53;;;;;;;;;;5051899;28;20484;-74
2022/01/26 10:22:33;;;;;;;43.10;22.47;;;;;;;;;;5052860;28;20508;-75
2022/01/26 10:25:03;;;;;;;48.97;23.83;;;;;;;;;;5052740;28;20439;-72
2022/01/26 10:27:36;;;;;;;48.70;24.20;;;;;;;;;;5052601;28;20934;-73
2022/01/26 10:30:02;;;;;;;47.03;24.10;;;;;;;;;;5052728;28;20884;-74
2022/01/26 10:32:31;;;;;;;55.97;26.93;;;;;;;;;;5052931;28;20538;-78
2022/01/26 10:35:00;;;;;;;61.47;27.83;;;;;;;;;;5052770;28;20478;-74
2022/01/26 10:37:26;;;;;;;61.83;29.07;;;;;;;;;;5052493;28;20431;-73
2022/01/26 10:39:55;;;;;;;52.67;27.20;;;;;;;;;;5052302;28;20431;-72
2022/01/26 10:42:23;;;;;;;59.67;29.30;;;;;;;;;;5052297;28;20430;-71
2022/01/26 10:45:07;;;;;;;63.00;30.23;;;;;;;;;;5052330;28;20447;-73
2022/01/26 10:47:37;;;;;;;60.67;30.67;;;;;;;;;;5052277;28;20431;-73
2022/01/26 10:53:06;;;;;;;56.20;29.63;;;;;;;;;;5052249;28;20430;-74
2022/01/26 10:55:33;;;;;;;63.67;30.93;;;;;;;;;;5052083;28;20485;-72
2022/01/26 10:57:59;;;;;;;65.93;31.40;;;;;;;;;;5052332;28;20445;-73
2022/01/26 11:00:26;;;;;;;59.83;30.57;;;;;;;;;;5052032;28;20438;-73
2022/01/26 11:02:57;;;;;;;62.27;30.57;;;;;;;;;;5052102;28;20227;-73
2022/01/26 11:05:23;;;;;;;62.17;30.80;;;;;;;;;;5052143;28;20431;-74
2022/01/26 11:07:50;;;;;;;57.77;29.03;;;;;;;;;;5052033;28;20500;-73
2022/01/26 11:10:17;;;;;;;68.23;30.87;;;;;;;;;;5052394;28;20500;-72
2022/01/26 11:12:44;;;;;;;66.23;30.60;;;;;;;;;;5052291;28;20823;-73
2022/01/26 11:15:11;;;;;;;62.63;30.20;;;;;;;;;;5052115;28;20558;-71
2022/01/26 11:17:41;;;;;;;68.17;30.27;;;;;;;;;;5052097;28;21018;-74
2022/01/26 11:20:17;;;;;;;59.83;30.43;;;;;;;;;;5052315;28;20530;-73
2022/01/26 11:22:47;;;;;;;66.00;30.10;;;;;;;;;;5052254;28;20789;-72
2022/01/26 11:25:14;;;;;;;58.73;30.20;;;;;;;;;;5052441;28;20437;-73
2022/01/26 11:27:40;;;;;;;60.13;31.07;;;;;;;;;;5052092;28;20435;-74
2022/01/26 11:30:15;;;;;;;62.23;30.10;;;;;;;;;;5054322;28;20438;-73
2022/01/26 11:32:50;;;;;;;67.20;32.50;;;;;;;;;;5056833;28;20446;-74
2022/01/26 11:35:17;;;;;;;68.77;33.03;;;;;;;;;;5056350;28;20470;-73
2022/01/26 11:37:48;;;;;;;65.67;31.80;;;;;;;;;;5056103;28;20467;-74
2022/01/26 11:45:36;;;;;;;64.73;31.50;;;;;;;;;;5056210;28;20430;-72
2022/01/26 11:48:07;;;;;;;66.67;33.30;;;;;;;;;;5056162;28;20434;-72
2022/01/26 11:50:34;;;;;;;71.40;34.67;;;;;;;;;;5056012;28;20791;-72
2022/01/26 11:53:01;;;;;;;66.83;32.83;;;;;;;;;;5056065;28;20438;-73
2022/01/26 11:55:33;;;;;;;70.40;32.53;;;;;;;;;;5055535;28;20520;-73
2022/01/26 11:58:06;;;;;;;68.47;32.60;;;;;;;;;;5055844;28;20439;-74
2022/01/26 12:00:40;;;;;;;69.17;33.60;;;;;;;;;;5055578;28;20438;-74
2022/01/26 12:03:18;;;;;;;66.83;31.60;;;;;;;;;;5055854;28;20458;-73
2022/01/26 12:05:46;;;;;;;73.93;35.73;;;;;;;;;;5055956;28;20490;-74
2022/01/26 12:08:12;;;;;;;77.77;35.17;;;;;;;;;;5056003;28;20458;-75
2022/01/26 12:10:39;;;;;;;74.07;35.47;;;;;;;;;;5055792;28;20462;-73
2022/01/26 12:13:06;;;;;;;72.57;33.10;;;;;;;;;;5055461;28;20479;-74
2022/01/26 12:15:41;;;;;;;75.23;34.20;;;;;;;;;;5055706;28;20492;-74
2022/01/26 12:18:21;;;;;;;74.90;36.00;;;;;;;;;;5055409;28;20852;-71
2022/01/26 12:32:13;;;;;;;80.43;34.83;;;;;;;;;;5055222;28;20430;-73
2022/01/26 12:45:13;;;;;;;75.37;35.80;;;;;;;;;;5054999;28;20535;-75
2022/01/26 12:47:40;;;;;;;79.60;37.40;;;;;;;;;;5054585;28;20577;-74
2022/01/26 12:50:08;;;;;;;72.40;34.93;;;;;;;;;;5054559;28;20439;-71
2022/01/26 12:52:34;;;;;;;81.73;37.23;;;;;;;;;;5054643;28;20461;-74
2022/01/26 12:55:00;;;;;;;73.37;36.40;;;;;;;;;;5054473;28;20790;-74
2022/01/26 12:57:26;;;;;;;80.83;37.07;;;;;;;;;;5052805;28;20434;-76
2022/01/26 12:59:59;;;;;;;75.17;35.00;;;;;;;;;;5054650;28;20196;-74
2022/01/26 13:02:25;;;;;;;80.93;37.50;;;;;;;;;;5054352;28;20287;-72
2022/01/26 13:04:57;;;;;;;84.50;39.33;;;;;;;;;;5054438;28;20431;-75
2022/01/26 13:07:25;;;;;;;76.70;38.50;;;;;;;;;;5054585;28;20535;-76
2022/01/26 13:09:51;;;;;;;78.80;35.83;;;;;;;;;;5054112;28;20854;-74
2022/01/26 13:12:19;;;;;;;78.53;38.87;;;;;;;;;;5053914;28;20482;-74
2022/01/26 13:14:55;;;;;;;78.87;37.30;;;;;;;;;;5053819;28;20208;-73
2022/01/26 13:20:02;;;;;;;86.53;37.97;;;;;;;;;;5053729;28;20431;-73
2022/01/26 13:22:56;;;;;;;80.80;36.80;;;;;;;;;;5053924;28;20431;-75
2022/01/26 13:25:47;;;;;;;80.20;38.07;;;;;;;;;;5053949;28;20439;-73
2022/01/26 13:33:43;;;;;;;79.60;39.30;;;;;;;;;;5053891;28;20441;-73
2022/01/26 13:36:24;;;;;;;83.83;39.00;;;;;;;;;;5053750;28;20482;-73
2022/01/26 13:39:13;;;;;;;85.30;39.00;;;;;;;;;;5052361;28;20472;-74
2022/01/26 13:44:45;;;;;;;86.77;40.37;;;;;;;;;;5053703;28;20441;-74
2022/01/26 13:47:19;;;;;;;85.40;39.00;;;;;;;;;;5052772;28;20450;-72
2022/01/26 13:57:47;;;;;;;93.80;41.37;;;;;;;;;;5053676;28;20833;-72
2022/01/26 14:00:16;;;;;;;95.37;41.33;;;;;;;;;;5046558;28;20588;-68
2022/01/26 14:02:42;;;;;;;86.47;39.67;;;;;;;;;;5053554;28;20549;-66
2022/01/26 14:05:09;;;;;;;90.87;38.60;;;;;;;;;;5053758;28;20446;-67
2022/01/26 14:07:35;;;;;;;90.00;40.63;;;;;;;;;;5053593;28;20442;-66
2022/01/26 14:10:03;;;;;;;93.37;41.10;;;;;;;;;;5053442;28;20434;-68
2022/01/26 14:12:34;;;;;;;85.70;39.47;;;;;;;;;;5053127;28;20478;-67
2022/01/26 14:15:00;;;;;;;87.03;40.93;;;;;;;;;;5053192;28;20474;-67
2022/01/26 14:17:37;;;;;;;90.07;41.07;;;;;;;;;;5053240;28;20431;-68
2022/01/26 14:20:29;;;;;;;91.43;39.50;;;;;;;;;;5053301;28;20545;-68
2022/01/26 14:25:31;;;;;;;87.87;40.37;;;;;;;;;;5053189;28;20980;-70
2022/01/26 14:28:06;;;;;;;81.60;37.80;;;;;;;;;;5052796;28;21010;-72
2022/01/26 14:39:38;;;;;;;90.97;39.83;;;;;;;;;;5050762;28;20427;-69
2022/01/26 14:54:57;;;;;;;86.87;38.03;;;;;;;;;;5052345;28;20500;-66
2022/01/26 15:22:47;;;;;;;86.23;37.30;;;;;;;;;;5051826;28;20422;-65
2022/01/26 15:30:33;;;;;;;81.20;36.57;;;;;;;;;;5051931;28;20414;-66
2022/01/26 15:40:03;;;;;;;76.37;33.93;;;;;;;;;;5050978;28;20470;-67
2022/01/26 15:49:43;;;;;;;86.93;35.23;;;;;;;;;;5052254;28;20950;-65
2022/01/26 15:52:19;;;;;;;76.43;34.73;;;;;;;;;;5051507;28;20442;-67
2022/01/26 16:08:30;;;;;;;85.40;36.40;;;;;;;;;;5049786;28;20445;-67
2022/01/26 16:17:06;;;;;;;75.43;32.83;;;;;;;;;;5051530;28;20851;-65
2022/01/26 16:19:46;;;;;;;81.63;34.00;;;;;;;;;;5055247;28;20438;-67
2022/01/26 16:28:13;;;;;;;79.50;34.30;;;;;;;;;;5055093;28;20198;-66
2022/01/26 16:36:08;;;;;;;75.47;34.20;;;;;;;;;;5054459;28;20488;-65
2022/01/26 16:52:24;;;;;;;76.37;32.33;;;;;;;;;;5054925;28;20779;-67
2022/01/26 16:52:25;;;;;;;77.27;32.93;;;;;;;;;;5055034;28;20437;-66
2022/01/26 16:53:21;;;;;;;76.40;32.07;;;;;;;;;;5054644;28;20780;-67
2022/01/26 18:15:19;;;;;;;51.60;27.03;;;;;;;;;;5033375;28;20420;-60
2022/01/26 18:33:28;;;;;;;52.30;26.03;;;;;;;;;;5033468;28;20799;-59
2022/01/26 18:38:54;;;;;;;47.70;24.73;;;;;;;;;;5032954;28;20419;-58
2022/01/26 18:46:51;;;;;;;52.03;26.97;;;;;;;;;;5032818;28;20265;-58
2022/01/26 18:49:20;;;;;;;47.10;23.97;;;;;;;;;;5032829;28;20443;-59
2022/01/26 18:51:52;;;;;;;51.97;24.20;;;;;;;;;;5032488;28;20436;-58
2022/01/26 18:54:18;;;;;;;48.97;24.00;;;;;;;;;;5032733;28;20932;-59
2022/01/26 18:56:46;;;;;;;47.47;26.10;;;;;;;;;;5032675;28;20879;-60
2022/01/26 18:59:13;;;;;;;50.23;24.47;;;;;;;;;;5032838;28;20439;-59
2022/01/26 19:01:40;;;;;;;46.93;25.63;;;;;;;;;;5032633;28;20454;-60
2022/01/26 19:04:06;;;;;;;46.07;26.00;;;;;;;;;;5032430;28;21018;-59
2022/01/26 19:06:33;;;;;;;51.83;25.40;;;;;;;;;;5032209;28;20439;-60
2022/01/26 19:08:59;;;;;;;47.73;25.57;;;;;;;;;;5032712;28;20448;-59
2022/01/26 19:11:25;;;;;;;51.13;26.33;;;;;;;;;;5033097;28;20869;-58
2022/01/26 19:13:53;;;;;;;49.97;25.20;;;;;;;;;;5032609;28;20527;-59
2022/01/26 19:16:39;;;;;;;50.67;25.63;;;;;;;;;;5032589;28;20484;-60
2022/01/26 19:19:47;;;;;;;54.80;27.60;;;;;;;;;;5032784;28;20515;-59
2022/01/26 19:27:40;;;;;;;49.83;26.50;;;;;;;;;;4971481;28;20504;-71
2022/01/26 19:32:51;;;;;;;54.83;28.47;;;;;;;;;;5032402;28;20435;-73
2022/01/26 19:46:29;;;;;;;51.13;27.13;;;;;;;;;;5032117;28;20491;-71
2022/01/26 19:52:23;;;;;;;52.43;27.40;;;;;;;;;;5031109;28;20418;-72
2022/01/26 19:54:30;;;;;;;53.83;27.47;;;;;;;;;;5027548;28;20466;-73
2022/01/26 19:56:56;;;;;;;57.73;28.93;;;;;;;;;;5035532;28;20498;-72
2022/01/26 19:59:22;;;;;;;58.83;28.93;;;;;;;;;;5035891;28;20239;-74
2022/01/26 20:01:48;;;;;;;55.07;30.07;;;;;;;;;;5035542;28;20197;-73
2022/01/26 20:04:14;;;;;;;59.03;29.27;;;;;;;;;;5035639;28;20462;-72
2022/01/26 20:06:43;;;;;;;63.57;30.00;;;;;;;;;;5035594;28;20440;-69
2022/01/26 20:09:29;;;;;;;63.70;29.83;;;;;;;;;;5035574;28;20205;-71
2022/01/26 20:12:01;;;;;;;62.80;31.23;;;;;;;;;;5035317;28;20478;-71
2022/01/26 20:14:32;;;;;;;64.30;30.43;;;;;;;;;;5035691;28;20802;-73
2022/01/26 20:16:59;;;;;;;64.30;30.17;;;;;;;;;;5035198;28;20773;-73
2022/01/26 20:19:25;;;;;;;57.97;29.67;;;;;;;;;;5035061;28;20435;-71
2022/01/26 20:21:52;;;;;;;62.70;30.20;;;;;;;;;;5035295;28;20436;-73
2022/01/26 20:24:19;;;;;;;56.77;29.73;;;;;;;;;;5035352;28;20669;-76
2022/01/26 20:26:45;;;;;;;62.30;30.30;;;;;;;;;;5035529;28;20440;-71
2022/01/26 20:29:11;;;;;;;60.27;29.93;;;;;;;;;;5035422;28;20436;-71
2022/01/26 20:31:37;;;;;;;58.93;30.83;;;;;;;;;;5035200;28;20514;-70
2022/01/26 20:34:04;;;;;;;60.07;31.37;;;;;;;;;;5035196;28;20482;-68
2022/01/26 20:36:30;;;;;;;56.87;28.93;;;;;;;;;;5035374;28;20488;-71
2022/01/26 20:38:57;;;;;;;65.20;31.83;;;;;;;;;;5037549;28;20435;-74